createdAt,value
2023-09-04T00:00:44.641Z,989.49
2023-09-04T00:01:44.647Z,989.52
2023-09-04T00:02:44.661Z,989.5
2023-09-04T00:03:44.640Z,989.55
2023-09-04T00:04:44.634Z,989.47
2023-09-04T00:05:44.632Z,989.52
2023-09-04T00:06:44.665Z,989.51
2023-09-04T00:07:44.609Z,989.46
2023-09-04T00:08:44.668Z,989.48
2023-09-04T00:09:44.654Z,989.48
2023-09-04T00:10:44.654Z,989.52
2023-09-04T00:11:44.688Z,989.54
2023-09-04T00:12:44.694Z,989.53
2023-09-04T00:13:44.635Z,989.55
2023-09-04T00:14:44.671Z,989.57
2023-09-04T00:15:44.657Z,989.56
2023-09-04T00:16:44.689Z,989.57
2023-09-04T00:17:44.707Z,989.58
2023-09-04T00:18:44.663Z,989.55
2023-09-04T00:19:44.707Z,989.52
2023-09-04T00:20:44.673Z,989.49
2023-09-04T00:21:44.752Z,989.45
2023-09-04T00:22:44.717Z,989.41
2023-09-04T00:23:44.698Z,989.43
2023-09-04T00:24:44.754Z,989.45
2023-09-04T00:25:44.726Z,989.49
2023-09-04T00:26:44.787Z,989.52
2023-09-04T00:27:44.708Z,989.55
2023-09-04T00:28:44.725Z,989.55
2023-09-04T00:29:44.743Z,989.58
2023-09-04T00:30:44.753Z,989.61
2023-09-04T00:31:44.727Z,989.61
2023-09-04T00:32:44.711Z,989.65
2023-09-04T00:33:44.764Z,989.62
2023-09-04T00:34:44.761Z,989.67
2023-09-04T00:35:44.747Z,989.68
2023-09-04T00:36:44.782Z,989.6
2023-09-04T00:37:44.788Z,989.6
2023-09-04T00:38:44.753Z,989.59
2023-09-04T00:39:44.743Z,989.57
2023-09-04T00:40:44.771Z,989.7
2023-09-04T00:41:44.804Z,989.66
2023-09-04T00:42:44.763Z,989.7
2023-09-04T00:43:44.798Z,989.56
2023-09-04T00:44:44.766Z,989.59
2023-09-04T00:45:44.864Z,989.56
2023-09-04T00:46:44.825Z,989.61
2023-09-04T00:47:44.828Z,989.66
2023-09-04T00:48:44.818Z,989.62
2023-09-04T00:49:44.831Z,989.58
2023-09-04T00:50:44.810Z,989.6
2023-09-04T00:51:44.849Z,989.65
2023-09-04T00:52:44.831Z,989.67
2023-09-04T00:53:44.837Z,989.64
2023-09-04T00:54:44.824Z,989.65
2023-09-04T00:55:44.813Z,989.66
2023-09-04T00:56:44.883Z,989.58
2023-09-04T00:57:44.849Z,989.61
2023-09-04T00:58:44.853Z,989.59
2023-09-04T00:59:44.834Z,989.62
2023-09-04T01:00:44.870Z,989.64
2023-09-04T01:01:44.869Z,989.58
2023-09-04T01:02:44.936Z,989.55
2023-09-04T01:03:44.854Z,989.55
2023-09-04T01:04:44.890Z,989.51
2023-09-04T01:05:44.869Z,989.53
2023-09-04T01:06:44.911Z,989.5
2023-09-04T01:07:44.871Z,989.51
2023-09-04T01:08:44.905Z,989.54
2023-09-04T01:09:44.897Z,989.56
2023-09-04T01:10:44.910Z,989.58
2023-09-04T01:11:44.902Z,989.57
2023-09-04T01:12:44.884Z,989.57
2023-09-04T01:13:44.938Z,989.63
2023-09-04T01:14:44.891Z,989.51
2023-09-04T01:15:44.947Z,989.55
2023-09-04T01:16:44.974Z,989.61
2023-09-04T01:17:45.074Z,989.56
2023-09-04T01:18:45.071Z,989.54
2023-09-04T01:19:44.952Z,989.53
2023-09-04T01:20:44.970Z,989.53
2023-09-04T01:21:45.005Z,989.56
2023-09-04T01:22:44.972Z,989.52
2023-09-04T01:23:44.955Z,989.52
2023-09-04T01:24:44.962Z,989.5
2023-09-04T01:25:44.959Z,989.42
2023-09-04T01:26:45.001Z,989.45
2023-09-04T01:27:45.036Z,989.4
2023-09-04T01:28:44.982Z,989.4
2023-09-04T01:29:44.952Z,989.42
2023-09-04T01:30:45.039Z,989.36
2023-09-04T01:31:45.015Z,989.31
2023-09-04T01:32:45.008Z,989.33
2023-09-04T01:33:44.977Z,989.37
2023-09-04T01:34:44.972Z,989.29
2023-09-04T01:35:44.997Z,989.35
2023-09-04T01:36:45.030Z,989.31
2023-09-04T01:37:45.019Z,989.3
2023-09-04T01:38:45.042Z,989.37
2023-09-04T01:39:44.992Z,989.34
2023-09-04T01:40:45.043Z,989.33
2023-09-04T01:41:45.029Z,989.32
2023-09-04T01:42:45.027Z,989.32
2023-09-04T01:43:45.044Z,989.26
2023-09-04T01:44:44.993Z,989.31
2023-09-04T01:45:45.024Z,989.31
2023-09-04T01:46:45.150Z,989.29
2023-09-04T01:47:45.071Z,989.32
2023-09-04T01:48:45.079Z,989.28
2023-09-04T01:49:45.045Z,989.3
2023-09-04T01:50:45.063Z,989.32
2023-09-04T01:51:45.078Z,989.33
2023-09-04T01:52:45.073Z,989.32
2023-09-04T01:53:45.100Z,989.32
2023-09-04T01:54:45.089Z,989.33
2023-09-04T01:55:45.112Z,989.34
2023-09-04T01:56:45.130Z,989.33
2023-09-04T01:57:45.085Z,989.3
2023-09-04T01:58:45.111Z,989.31
2023-09-04T01:59:45.095Z,989.35
2023-09-04T02:00:45.083Z,989.37
2023-09-04T02:01:45.162Z,989.35
2023-09-04T02:02:45.260Z,989.42
2023-09-04T02:03:45.122Z,989.38
2023-09-04T02:04:45.153Z,989.34
2023-09-04T02:05:45.102Z,989.4
2023-09-04T02:06:45.175Z,989.44
2023-09-04T02:07:45.135Z,989.41
2023-09-04T02:08:45.098Z,989.4
2023-09-04T02:09:45.132Z,989.42
2023-09-04T02:10:45.084Z,989.43
2023-09-04T02:11:45.185Z,989.47
2023-09-04T02:12:45.148Z,989.49
2023-09-04T02:13:45.133Z,989.44
2023-09-04T02:14:45.385Z,989.49
2023-09-04T02:15:45.229Z,989.43
2023-09-04T02:16:45.158Z,989.57
2023-09-04T02:17:45.220Z,989.53
2023-09-04T02:18:45.171Z,989.53
2023-09-04T02:19:45.171Z,989.55
2023-09-04T02:20:45.207Z,989.55
2023-09-04T02:21:45.192Z,989.57
2023-09-04T02:22:45.238Z,989.61
2023-09-04T02:23:45.214Z,989.51
2023-09-04T02:24:45.214Z,989.59
2023-09-04T02:25:45.197Z,989.61
2023-09-04T02:26:45.215Z,989.62
2023-09-04T02:27:45.298Z,989.61
2023-09-04T02:28:45.231Z,989.62
2023-09-04T02:29:45.241Z,989.61
2023-09-04T02:30:45.224Z,989.65
2023-09-04T02:31:45.294Z,989.66
2023-09-04T02:32:45.267Z,989.63
2023-09-04T02:33:45.239Z,989.64
2023-09-04T02:34:45.255Z,989.67
2023-09-04T02:35:45.247Z,989.63
2023-09-04T02:36:45.296Z,989.57
2023-09-04T02:37:45.271Z,989.64
2023-09-04T02:38:45.251Z,989.65
2023-09-04T02:39:45.276Z,989.61
2023-09-04T02:40:45.225Z,989.62
2023-09-04T02:41:45.264Z,989.63
2023-09-04T02:42:45.235Z,989.72
2023-09-04T02:43:45.309Z,989.7
2023-09-04T02:44:45.286Z,989.69
2023-09-04T02:45:45.340Z,989.74
2023-09-04T02:46:45.289Z,989.74
2023-09-04T02:47:45.336Z,989.72
2023-09-04T02:48:45.288Z,989.73
2023-09-04T02:49:45.310Z,989.71
2023-09-04T02:50:45.324Z,989.72
2023-09-04T02:51:45.320Z,989.67
2023-09-04T02:52:45.357Z,989.69
2023-09-04T02:53:45.337Z,989.6
2023-09-04T02:54:45.322Z,989.66
2023-09-04T02:55:45.339Z,989.63
2023-09-04T02:56:45.349Z,989.59
2023-09-04T02:57:45.362Z,989.65
2023-09-04T02:58:45.326Z,989.68
2023-09-04T02:59:45.354Z,989.64
2023-09-04T03:00:45.450Z,989.68
2023-09-04T03:01:45.373Z,989.68
2023-09-04T03:02:45.476Z,989.63
2023-09-04T03:03:45.381Z,989.71
2023-09-04T03:04:45.346Z,989.68
2023-09-04T03:05:45.363Z,989.71
2023-09-04T03:06:45.390Z,989.68
2023-09-04T03:07:45.357Z,989.7
2023-09-04T03:08:45.436Z,989.69
2023-09-04T03:09:45.382Z,989.72
2023-09-04T03:10:45.369Z,989.71
2023-09-04T03:11:45.427Z,989.7
2023-09-04T03:12:45.401Z,989.71
2023-09-04T03:13:45.431Z,989.81
2023-09-04T03:14:45.387Z,989.75
2023-09-04T03:15:45.404Z,989.78
2023-09-04T03:16:45.457Z,989.72
2023-09-04T03:17:45.479Z,989.64
2023-09-04T03:18:45.417Z,989.74
2023-09-04T03:19:45.485Z,989.73
2023-09-04T03:20:45.455Z,989.77
2023-09-04T03:21:45.445Z,989.72
2023-09-04T03:22:45.428Z,989.83
2023-09-04T03:23:45.481Z,989.77
2023-09-04T03:24:45.478Z,989.73
2023-09-04T03:25:45.491Z,989.76
2023-09-04T03:26:45.487Z,989.68
2023-09-04T03:27:45.468Z,989.8
2023-09-04T03:28:45.481Z,989.74
2023-09-04T03:29:45.505Z,989.75
2023-09-04T03:30:45.526Z,989.71
2023-09-04T03:31:45.497Z,989.68
2023-09-04T03:32:45.529Z,989.68
2023-09-04T03:33:45.537Z,989.78
2023-09-04T03:34:45.508Z,989.74
2023-09-04T03:35:45.485Z,989.79
2023-09-04T03:36:45.508Z,989.79
2023-09-04T03:37:45.520Z,989.82
2023-09-04T03:38:45.536Z,989.79
2023-09-04T03:39:45.528Z,989.76
2023-09-04T03:40:45.508Z,989.8
2023-09-04T03:41:45.538Z,989.86
2023-09-04T03:42:45.523Z,989.83
2023-09-04T03:43:45.623Z,989.81
2023-09-04T03:44:45.546Z,989.84
2023-09-04T03:45:45.582Z,989.71
2023-09-04T03:46:45.605Z,989.79
2023-09-04T03:47:45.598Z,989.77
2023-09-04T03:48:45.627Z,989.81
2023-09-04T03:49:45.567Z,989.79
2023-09-04T03:50:45.580Z,989.81
2023-09-04T03:51:45.573Z,989.82
2023-09-04T03:52:45.576Z,989.82
2023-09-04T03:53:45.552Z,989.82
2023-09-04T03:54:45.573Z,989.88
2023-09-04T03:55:45.531Z,989.78
2023-09-04T03:56:45.567Z,989.9
2023-09-04T03:57:45.620Z,989.92
2023-09-04T03:58:45.603Z,989.87
2023-09-04T03:59:45.572Z,989.83
2023-09-04T04:00:45.621Z,989.88
2023-09-04T04:01:45.626Z,989.86
2023-09-04T04:02:45.700Z,989.85
2023-09-04T04:03:45.731Z,989.85
2023-09-04T04:04:45.631Z,989.84
2023-09-04T04:05:45.632Z,989.86
2023-09-04T04:06:45.693Z,989.85
2023-09-04T04:07:45.646Z,989.92
2023-09-04T04:08:45.663Z,989.89
2023-09-04T04:09:45.619Z,989.87
2023-09-04T04:10:45.701Z,989.81
2023-09-04T04:11:45.663Z,989.86
2023-09-04T04:12:45.670Z,989.88
2023-09-04T04:13:45.685Z,989.85
2023-09-04T04:14:45.662Z,989.85
2023-09-04T04:15:45.659Z,989.81
2023-09-04T04:16:45.711Z,989.81
2023-09-04T04:17:45.716Z,989.85
2023-09-04T04:18:45.721Z,989.87
2023-09-04T04:19:45.683Z,989.84
2023-09-04T04:20:45.706Z,989.83
2023-09-04T04:21:45.665Z,989.84
2023-09-04T04:22:45.687Z,989.8
2023-09-04T04:23:47.272Z,989.85
2023-09-04T04:24:45.742Z,989.81
2023-09-04T04:25:45.715Z,989.86
2023-09-04T04:26:45.717Z,989.84
2023-09-04T04:27:45.726Z,989.89
2023-09-04T04:28:45.746Z,989.89
2023-09-04T04:29:45.710Z,989.87
2023-09-04T04:30:45.736Z,989.86
2023-09-04T04:31:45.784Z,989.87
2023-09-04T04:32:45.724Z,989.9
2023-09-04T04:33:45.788Z,989.94
2023-09-04T04:34:45.776Z,989.98
2023-09-04T04:35:45.732Z,989.91
2023-09-04T04:36:45.773Z,989.99
2023-09-04T04:37:45.779Z,990
2023-09-04T04:38:45.764Z,990.07
2023-09-04T04:39:45.787Z,990.07
2023-09-04T04:40:45.783Z,990.11
2023-09-04T04:41:45.800Z,990.13
2023-09-04T04:42:45.765Z,990.15
2023-09-04T04:43:45.794Z,990.17
2023-09-04T04:44:45.760Z,990.19
2023-09-04T04:45:45.812Z,990.06
2023-09-04T04:46:45.785Z,990.15
2023-09-04T04:47:45.873Z,990.23
2023-09-04T04:48:45.840Z,990.18
2023-09-04T04:49:45.809Z,990.19
2023-09-04T04:50:45.789Z,990.27
2023-09-04T04:51:45.817Z,990.24
2023-09-04T04:52:45.830Z,990.25
2023-09-04T04:53:45.799Z,990.24
2023-09-04T04:54:45.797Z,990.23
2023-09-04T04:55:45.785Z,990.26
2023-09-04T04:56:45.830Z,990.25
2023-09-04T04:57:45.860Z,990.31
2023-09-04T04:58:45.880Z,990.34
2023-09-04T04:59:45.842Z,990.39
2023-09-04T05:00:45.820Z,990.36
2023-09-04T05:01:45.969Z,990.35
2023-09-04T05:02:45.903Z,990.31
2023-09-04T05:03:45.904Z,990.34
2023-09-04T05:04:45.924Z,990.25
2023-09-04T05:05:45.894Z,990.34
2023-09-04T05:06:45.866Z,990.32
2023-09-04T05:07:45.862Z,990.37
2023-09-04T05:08:45.903Z,990.23
2023-09-04T05:09:45.847Z,990.35
2023-09-04T05:10:45.901Z,990.36
2023-09-04T05:11:45.910Z,990.32
2023-09-04T05:12:45.929Z,990.34
2023-09-04T05:13:45.983Z,990.4
2023-09-04T05:14:45.930Z,990.39
2023-09-04T05:15:45.941Z,990.34
2023-09-04T05:16:45.921Z,990.37
2023-09-04T05:17:45.999Z,990.34
2023-09-04T05:18:45.930Z,990.36
2023-09-04T05:19:45.931Z,990.37
2023-09-04T05:20:45.952Z,990.44
2023-09-04T05:21:56.410Z,990.31
2023-09-04T05:22:45.954Z,990.45
2023-09-04T05:23:45.956Z,990.42
2023-09-04T05:24:45.963Z,990.43
2023-09-04T05:25:45.969Z,990.48
2023-09-04T05:26:45.984Z,990.44
2023-09-04T05:27:45.996Z,990.53
2023-09-04T05:28:45.987Z,990.45
2023-09-04T05:29:45.975Z,990.55
2023-09-04T05:30:45.972Z,990.55
2023-09-04T05:31:46.006Z,990.62
2023-09-04T05:32:45.994Z,990.62
2023-09-04T05:33:45.985Z,990.65
2023-09-04T05:34:46.015Z,990.6
2023-09-04T05:35:45.968Z,990.51
2023-09-04T05:36:46.018Z,990.6
2023-09-04T05:37:45.998Z,990.64
2023-09-04T05:38:46.052Z,990.6
2023-09-04T05:39:45.987Z,990.66
2023-09-04T05:40:46.013Z,990.71
2023-09-04T05:41:46.055Z,990.65
2023-09-04T05:42:46.010Z,990.61
2023-09-04T05:43:46.034Z,990.65
2023-09-04T05:44:46.028Z,990.67
2023-09-04T05:45:46.051Z,990.69
2023-09-04T05:46:46.105Z,990.71
2023-09-04T05:47:46.078Z,990.71
2023-09-04T05:48:46.051Z,990.71
2023-09-04T05:49:46.048Z,990.58
2023-09-04T05:50:48.742Z,990.77
2023-09-04T05:51:46.092Z,990.69
2023-09-04T05:52:46.083Z,990.65
2023-09-04T05:53:46.070Z,990.74
2023-09-04T05:54:46.070Z,990.71
2023-09-04T05:55:46.145Z,990.68
2023-09-04T05:56:46.178Z,990.49
2023-09-04T05:57:46.080Z,990.63
2023-09-04T05:58:46.105Z,990.71
2023-09-04T05:59:46.109Z,990.66
2023-09-04T06:00:46.128Z,990.57
2023-09-04T06:01:46.114Z,990.62
2023-09-04T06:02:46.164Z,990.69
2023-09-04T06:03:46.247Z,990.63
2023-09-04T06:04:46.127Z,990.67
2023-09-04T06:05:46.101Z,990.6
2023-09-04T06:06:46.201Z,990.66
2023-09-04T06:07:46.167Z,990.73
2023-09-04T06:08:46.137Z,990.84
2023-09-04T06:09:46.612Z,990.62
2023-09-04T06:10:46.117Z,990.68
2023-09-04T06:11:46.226Z,990.69
2023-09-04T06:12:46.153Z,990.64
2023-09-04T06:13:46.224Z,990.74
2023-09-04T06:14:46.146Z,990.6
2023-09-04T06:15:46.204Z,990.7
2023-09-04T06:16:46.228Z,990.76
2023-09-04T06:17:46.210Z,990.59
2023-09-04T06:18:46.228Z,990.73
2023-09-04T06:19:46.184Z,990.68
2023-09-04T06:20:46.227Z,990.74
2023-09-04T06:21:46.253Z,990.65
2023-09-04T06:22:46.208Z,990.69
2023-09-04T06:23:46.226Z,990.69
2023-09-04T06:24:46.223Z,990.68
2023-09-04T06:25:46.234Z,990.71
2023-09-04T06:26:46.244Z,990.53
2023-09-04T06:27:46.233Z,990.64
2023-09-04T06:28:46.254Z,990.72
2023-09-04T06:29:46.271Z,990.77
2023-09-04T06:30:46.387Z,990.57
2023-09-04T06:31:46.277Z,990.54
2023-09-04T06:32:46.319Z,990.53
2023-09-04T06:33:46.341Z,990.62
2023-09-04T06:34:46.281Z,990.63
2023-09-04T06:35:46.254Z,990.72
2023-09-04T06:36:46.289Z,990.66
2023-09-04T06:37:46.298Z,990.7
2023-09-04T06:38:46.295Z,990.76
2023-09-04T06:39:46.280Z,990.71
2023-09-04T06:40:46.303Z,990.74
2023-09-04T06:41:46.293Z,990.74
2023-09-04T06:42:46.310Z,990.81
2023-09-04T06:43:46.380Z,990.8
2023-09-04T06:44:46.302Z,990.86
2023-09-04T06:45:46.285Z,990.75
2023-09-04T06:46:46.296Z,990.83
2023-09-04T06:47:46.317Z,990.68
2023-09-04T06:48:46.355Z,990.8
2023-09-04T06:49:46.303Z,990.73
2023-09-04T06:50:46.327Z,990.85
2023-09-04T06:51:46.351Z,990.75
2023-09-04T06:52:46.332Z,990.79
2023-09-04T06:53:46.337Z,990.88
2023-09-04T06:54:46.337Z,990.96
2023-09-04T06:55:46.361Z,990.92
2023-09-04T06:56:46.353Z,990.8
2023-09-04T06:57:46.348Z,990.92
2023-09-04T06:58:46.359Z,990.92
2023-09-04T06:59:46.362Z,990.97
2023-09-04T07:00:46.371Z,991.05
2023-09-04T07:01:46.417Z,991.09
2023-09-04T07:02:46.452Z,990.93
2023-09-04T07:03:46.432Z,991.07
2023-09-04T07:04:46.371Z,990.96
2023-09-04T07:05:46.368Z,991
2023-09-04T07:06:46.456Z,991.04
2023-09-04T07:07:46.396Z,991
2023-09-04T07:08:46.385Z,991.08
2023-09-04T07:09:46.414Z,991.05
2023-09-04T07:10:46.406Z,991.08
2023-09-04T07:11:46.385Z,991.06
2023-09-04T07:12:46.371Z,990.97
2023-09-04T07:13:46.442Z,991.07
2023-09-04T07:14:46.393Z,991.17
2023-09-04T07:15:46.462Z,991.16
2023-09-04T07:17:46.501Z,991.22
2023-09-04T07:18:47.014Z,991.17
2023-09-04T07:19:46.436Z,991.21
2023-09-04T07:20:46.455Z,991.15
2023-09-04T07:21:46.474Z,991.21
2023-09-04T07:22:46.420Z,991.06
2023-09-04T07:23:46.465Z,991.07
2023-09-04T07:24:46.460Z,991.07
2023-09-04T07:25:46.420Z,991.12
2023-09-04T07:26:46.442Z,990.9
2023-09-04T07:27:46.446Z,991.14
2023-09-04T07:28:46.467Z,991.06
2023-09-04T07:29:46.486Z,991.09
2023-09-04T07:30:46.497Z,991.05
2023-09-04T07:31:46.472Z,991.03
2023-09-04T07:32:46.495Z,991.1
2023-09-04T07:33:46.453Z,991.04
2023-09-04T07:34:46.515Z,991.06
2023-09-04T07:35:46.541Z,991
2023-09-04T07:36:46.516Z,991.12
2023-09-04T07:37:46.534Z,991.05
2023-09-04T07:38:46.524Z,991.14
2023-09-04T07:39:46.496Z,991.14
2023-09-04T07:40:46.494Z,991.01
2023-09-04T07:41:46.537Z,991.1
2023-09-04T07:42:46.573Z,990.96
2023-09-04T07:43:46.594Z,991.02
2023-09-04T07:44:46.564Z,991.06
2023-09-04T07:45:46.533Z,991.01
2023-09-04T07:46:46.539Z,991.09
2023-09-04T07:47:46.601Z,991.14
2023-09-04T07:48:46.600Z,991.08
2023-09-04T07:49:46.576Z,990.98
2023-09-04T07:50:46.579Z,991
2023-09-04T07:51:46.553Z,991.13
2023-09-04T07:52:46.537Z,991.13
2023-09-04T07:53:46.611Z,991.16
2023-09-04T07:54:46.621Z,991.19
2023-09-04T07:55:46.584Z,991.18
2023-09-04T07:56:46.592Z,991.13
2023-09-04T07:57:46.594Z,991.25
2023-09-04T07:58:46.630Z,991.1
2023-09-04T07:59:46.604Z,991.11
2023-09-04T08:00:46.652Z,991.08
2023-09-04T08:01:46.641Z,991.13
2023-09-04T08:02:46.644Z,991.06
2023-09-04T08:03:46.685Z,991.18
2023-09-04T08:04:46.645Z,991.2
2023-09-04T08:05:46.614Z,991
2023-09-04T08:06:46.619Z,990.86
2023-09-04T08:07:46.647Z,991.08
2023-09-04T08:08:46.670Z,991.11
2023-09-04T08:09:46.647Z,991.14
2023-09-04T08:10:46.677Z,991.14
2023-09-04T08:11:46.627Z,991.18
2023-09-04T08:12:46.653Z,991.04
2023-09-04T08:13:46.657Z,991.08
2023-09-04T08:14:46.683Z,990.94
2023-09-04T08:15:46.670Z,990.89
2023-09-04T08:16:46.678Z,990.94
2023-09-04T08:17:46.721Z,991.01
2023-09-04T08:18:46.731Z,991.07
2023-09-04T08:19:46.688Z,991.06
2023-09-04T08:20:46.668Z,991.08
2023-09-04T08:21:46.712Z,991
2023-09-04T08:22:46.711Z,990.92
2023-09-04T08:23:46.709Z,990.99
2023-09-04T08:24:46.718Z,990.91
2023-09-04T08:25:46.696Z,990.86
2023-09-04T08:26:46.697Z,990.88
2023-09-04T08:27:46.729Z,990.9
2023-09-04T08:28:46.722Z,990.85
2023-09-04T08:29:46.796Z,990.83
2023-09-04T08:30:46.772Z,990.84
2023-09-04T08:31:46.700Z,990.92
2023-09-04T08:32:46.727Z,990.97
2023-09-04T08:33:46.780Z,990.87
2023-09-04T08:34:46.751Z,990.91
2023-09-04T08:35:46.720Z,990.98
2023-09-04T08:36:46.782Z,990.89
2023-09-04T08:37:46.769Z,990.87
2023-09-04T08:38:46.814Z,990.79
2023-09-04T08:39:46.760Z,990.93
2023-09-04T08:40:46.791Z,990.9
2023-09-04T08:41:46.784Z,990.89
2023-09-04T08:42:46.791Z,990.85
2023-09-04T08:43:46.786Z,990.81
2023-09-04T08:44:46.773Z,990.89
2023-09-04T08:45:46.808Z,990.93
2023-09-04T08:46:46.917Z,990.78
2023-09-04T08:47:46.807Z,990.82
2023-09-04T08:48:46.867Z,990.83
2023-09-04T08:49:46.843Z,990.91
2023-09-04T08:50:46.813Z,990.96
2023-09-04T08:51:46.813Z,990.81
2023-09-04T08:52:46.810Z,990.76
2023-09-04T08:53:46.891Z,990.78
2023-09-04T08:54:46.826Z,990.85
2023-09-04T08:55:46.816Z,990.87
2023-09-04T08:56:46.844Z,990.89
2023-09-04T08:57:46.855Z,990.74
2023-09-04T08:58:46.886Z,990.83
2023-09-04T08:59:46.855Z,990.96
2023-09-04T09:00:46.866Z,991.01
2023-09-04T09:01:46.850Z,990.94
2023-09-04T09:02:46.999Z,990.98
2023-09-04T09:03:46.911Z,990.98
2023-09-04T09:04:46.868Z,991.06
2023-09-04T09:05:46.868Z,991.03
2023-09-04T09:06:46.926Z,991
2023-09-04T09:07:46.856Z,990.76
2023-09-04T09:08:46.905Z,990.87
2023-09-04T09:09:46.919Z,990.95
2023-09-04T09:10:46.923Z,990.99
2023-09-04T09:11:46.887Z,990.98
2023-09-04T09:12:46.882Z,990.97
2023-09-04T09:13:46.922Z,990.93
2023-09-04T09:14:46.873Z,991.02
2023-09-04T09:15:46.912Z,990.9
2023-09-04T09:16:46.956Z,990.96
2023-09-04T09:17:46.991Z,991.03
2023-09-04T09:18:46.976Z,991.02
2023-09-04T09:19:46.944Z,991.12
2023-09-04T09:20:46.937Z,991.09
2023-09-04T09:21:46.946Z,991.03
2023-09-04T09:22:46.955Z,991.01
2023-09-04T09:23:46.988Z,991.05
2023-09-04T09:24:47.057Z,990.74
2023-09-04T09:25:46.908Z,990.88
2023-09-04T09:26:46.947Z,990.93
2023-09-04T09:27:46.981Z,990.93
2023-09-04T09:28:46.993Z,990.98
2023-09-04T09:29:46.963Z,990.9
2023-09-04T09:30:47.003Z,991.02
2023-09-04T09:31:47.511Z,990.94
2023-09-04T09:32:47.018Z,990.99
2023-09-04T09:33:47.043Z,990.94
2023-09-04T09:34:46.962Z,990.95
2023-09-04T09:35:46.983Z,990.93
2023-09-04T09:36:47.009Z,990.95
2023-09-04T09:37:46.995Z,991.07
2023-09-04T09:38:47.037Z,990.94
2023-09-04T09:39:46.983Z,991.04
2023-09-04T09:40:47.044Z,990.76
2023-09-04T09:41:47.013Z,990.92
2023-09-04T09:42:47.012Z,990.89
2023-09-04T09:43:47.071Z,990.91
2023-09-04T09:44:47.002Z,990.86
2023-09-04T09:45:47.103Z,990.96
2023-09-04T09:46:47.039Z,990.87
2023-09-04T09:47:47.078Z,990.83
2023-09-04T09:48:47.070Z,990.91
2023-09-04T09:49:47.062Z,990.96
2023-09-04T09:50:47.063Z,990.94
2023-09-04T09:51:47.067Z,990.95
2023-09-04T09:52:47.046Z,990.94
2023-09-04T09:53:47.102Z,991
2023-09-04T09:54:47.087Z,990.93
2023-09-04T09:55:47.000Z,990.92
2023-09-04T09:56:47.122Z,990.9
2023-09-04T09:57:47.095Z,990.93
2023-09-04T09:58:47.084Z,990.89
2023-09-04T09:59:47.111Z,990.78
2023-09-04T10:00:47.093Z,990.8
2023-09-04T10:01:47.156Z,991.09
2023-09-04T10:02:47.228Z,991.12
2023-09-04T10:03:47.186Z,991.02
2023-09-04T10:04:47.104Z,990.89
2023-09-04T10:05:47.089Z,990.89
2023-09-04T10:06:47.138Z,990.93
2023-09-04T10:07:47.147Z,990.87
2023-09-04T10:08:47.143Z,991.03
2023-09-04T10:09:47.125Z,990.94
2023-09-04T10:10:47.122Z,990.91
2023-09-04T10:11:48.667Z,990.9
2023-09-04T10:12:47.143Z,990.85
2023-09-04T10:13:47.169Z,990.91
2023-09-04T10:14:47.107Z,990.93
2023-09-04T10:15:47.194Z,990.9
2023-09-04T10:16:47.156Z,990.44
2023-09-04T10:17:47.221Z,990.71
2023-09-04T10:18:47.164Z,990.9
2023-09-04T10:19:47.211Z,990.77
2023-09-04T10:20:47.176Z,990.94
2023-09-04T10:21:47.166Z,990.92
2023-09-04T10:22:47.169Z,990.99
2023-09-04T10:23:47.230Z,990.95
2023-09-04T10:24:47.192Z,990.83
2023-09-04T10:25:47.193Z,990.9
2023-09-04T10:26:47.198Z,990.93
2023-09-04T10:27:47.195Z,990.79
2023-09-04T10:28:47.183Z,990.81
2023-09-04T10:29:47.218Z,990.81
2023-09-04T10:30:47.266Z,990.89
2023-09-04T10:31:47.252Z,990.74
2023-09-04T10:32:47.248Z,990.66
2023-09-04T10:33:47.262Z,990.68
2023-09-04T10:34:47.280Z,990.68
2023-09-04T10:35:47.253Z,990.52
2023-09-04T10:36:47.250Z,990.53
2023-09-04T10:37:47.246Z,990.59
2023-09-04T10:38:47.328Z,990.48
2023-09-04T10:39:50.627Z,990.48
2023-09-04T10:40:47.255Z,990.37
2023-09-04T10:41:47.304Z,990.43
2023-09-04T10:42:47.306Z,990.43
2023-09-04T10:43:47.325Z,990.43
2023-09-04T10:44:47.353Z,990.46
2023-09-04T10:45:47.299Z,990.4
2023-09-04T10:46:47.326Z,990.37
2023-09-04T10:47:47.354Z,990.33
2023-09-04T10:48:47.450Z,990.47
2023-09-04T10:49:47.290Z,990.42
2023-09-04T10:50:47.349Z,990.44
2023-09-04T10:51:47.367Z,990.43
2023-09-04T10:52:47.287Z,990.28
2023-09-04T10:53:47.349Z,990.4
2023-09-04T10:54:47.437Z,990.49
2023-09-04T10:55:47.297Z,990.47
2023-09-04T10:56:47.326Z,990.39
2023-09-04T10:57:47.338Z,990.27
2023-09-04T10:58:47.376Z,990.24
2023-09-04T10:59:47.357Z,990.38
2023-09-04T11:00:47.388Z,990.33
2023-09-04T11:01:47.392Z,990.33
2023-09-04T11:02:47.398Z,990.28
2023-09-04T11:03:47.384Z,990.32
2023-09-04T11:04:47.411Z,990.43
2023-09-04T11:05:47.331Z,990.48
2023-09-04T11:06:47.438Z,990.45
2023-09-04T11:07:47.419Z,990.46
2023-09-04T11:08:47.414Z,990.37
2023-09-04T11:09:47.409Z,990.26
2023-09-04T11:10:47.390Z,990.3
2023-09-04T11:11:47.471Z,990.4
2023-09-04T11:12:47.422Z,990.26
2023-09-04T11:13:47.424Z,990.47
2023-09-04T11:14:47.435Z,990.48
2023-09-04T11:15:47.404Z,990.52
2023-09-04T11:16:47.446Z,990.42
2023-09-04T11:17:47.476Z,990.41
2023-09-04T11:18:47.443Z,990.22
2023-09-04T11:19:47.434Z,990.31
2023-09-04T11:20:47.415Z,990.4
2023-09-04T11:21:47.441Z,990.41
2023-09-04T11:22:47.414Z,990.38
2023-09-04T11:23:49.536Z,990.51
2023-09-04T11:24:47.547Z,990.44
2023-09-04T11:25:47.453Z,990.49
2023-09-04T11:26:47.467Z,990.41
2023-09-04T11:27:47.497Z,990.4
2023-09-04T11:28:47.524Z,990.43
2023-09-04T11:29:47.477Z,990.41
2023-09-04T11:30:47.482Z,990.45
2023-09-04T11:31:59.279Z,990.28
2023-09-04T11:32:47.643Z,990.36
2023-09-04T11:33:47.570Z,990.37
2023-09-04T11:34:47.490Z,990.11
2023-09-04T11:35:47.486Z,990.29
2023-09-04T11:36:47.529Z,990.35
2023-09-04T11:37:47.520Z,990.34
2023-09-04T11:38:47.509Z,990.18
2023-09-04T11:39:47.513Z,990.16
2023-09-04T11:40:47.488Z,990.32
2023-09-04T11:41:47.546Z,990.21
2023-09-04T11:42:47.584Z,990.22
2023-09-04T11:43:47.550Z,990.17
2023-09-04T11:44:47.540Z,990.11
2023-09-04T11:45:47.589Z,990.01
2023-09-04T11:46:47.552Z,990.13
2023-09-04T11:47:47.590Z,990.07
2023-09-04T11:48:47.579Z,990.18
2023-09-04T11:49:47.559Z,990.12
2023-09-04T11:50:47.593Z,990.13
2023-09-04T11:51:47.594Z,990.05
2023-09-04T11:52:47.592Z,990.01
2023-09-04T11:53:47.572Z,990.01
2023-09-04T11:54:47.597Z,989.99
2023-09-04T11:55:47.574Z,990
2023-09-04T11:56:47.543Z,989.93
2023-09-04T11:57:47.556Z,989.98
2023-09-04T11:58:47.584Z,989.95
2023-09-04T11:59:47.567Z,990.06
2023-09-04T12:00:47.604Z,990.12
2023-09-04T12:01:47.734Z,990.08
2023-09-04T12:02:47.881Z,989.89
2023-09-04T12:03:47.636Z,989.89
2023-09-04T12:04:47.899Z,989.97
2023-09-04T12:05:47.644Z,989.97
2023-09-04T12:06:47.670Z,989.82
2023-09-04T12:07:47.635Z,989.7
2023-09-04T12:08:47.624Z,989.86
2023-09-04T12:09:47.668Z,989.74
2023-09-04T12:10:47.659Z,989.83
2023-09-04T12:11:47.663Z,989.69
2023-09-04T12:12:47.634Z,989.79
2023-09-04T12:13:47.695Z,989.77
2023-09-04T12:14:47.667Z,989.37
2023-09-04T12:15:47.679Z,989.57
2023-09-04T12:16:47.715Z,989.55
2023-09-04T12:17:47.729Z,989.6
2023-09-04T12:18:47.654Z,989.68
2023-09-04T12:19:47.698Z,989.52
2023-09-04T12:21:47.704Z,989.67
2023-09-04T12:22:47.784Z,989.63
2023-09-04T12:23:47.818Z,989.52
2023-09-04T12:24:47.701Z,989.54
2023-09-04T12:25:47.716Z,989.45
2023-09-04T12:26:47.761Z,989.42
2023-09-04T12:27:47.706Z,989.47
2023-09-04T12:28:47.740Z,989.44
2023-09-04T12:29:47.712Z,989.6
2023-09-04T12:30:47.739Z,989.49
2023-09-04T12:31:47.763Z,989.5
2023-09-04T12:32:47.757Z,989.35
2023-09-04T12:33:48.088Z,989.29